createdAt,value
2023-03-18T00:00:02.014Z,9.77
2023-03-18T00:01:05.106Z,9.53
2023-03-18T00:02:08.129Z,9.63
2023-03-18T00:03:10.667Z,10.00
2023-03-18T00:04:14.734Z,10.27
2023-03-18T00:05:16.326Z,10.47
2023-03-18T00:06:21.906Z,10.62
2023-03-18T00:07:23.480Z,10.75
2023-03-18T00:08:26.145Z,10.86
2023-03-18T00:09:27.604Z,10.88
2023-03-18T00:10:30.634Z,10.87
2023-03-18T00:11:32.255Z,10.81
2023-03-18T00:12:35.017Z,10.45
2023-03-18T00:13:37.511Z,9.93
2023-03-18T00:14:40.053Z,9.86
2023-03-18T00:15:41.727Z,9.81
2023-03-18T00:16:44.435Z,9.16
2023-03-18T00:17:46.696Z,9.38
2023-03-18T00:18:49.702Z,9.03
2023-03-18T00:19:52.650Z,8.78
2023-03-18T00:20:55.393Z,8.70
2023-03-18T00:21:57.591Z,8.75
2023-03-18T00:23:00.215Z,8.84
2023-03-18T00:24:01.772Z,8.50
2023-03-18T00:25:05.699Z,8.52
2023-03-18T00:26:08.964Z,8.36
2023-03-18T00:27:11.508Z,8.52
2023-03-18T00:28:13.749Z,8.65
2023-03-18T00:29:16.434Z,8.44
2023-03-18T00:30:18.552Z,8.38
2023-03-18T00:31:21.231Z,8.50
2023-03-18T00:32:23.242Z,8.25
2023-03-18T00:33:25.941Z,8.06
2023-03-18T00:34:27.968Z,8.01
2023-03-18T00:35:32.387Z,8.23
2023-03-18T00:36:34.646Z,8.35
2023-03-18T00:37:37.577Z,8.22
2023-03-18T00:38:41.121Z,8.20
2023-03-18T00:39:44.341Z,8.06
2023-03-18T00:40:53.647Z,8.18
2023-03-18T00:41:57.983Z,8.31
2023-03-18T00:43:08.166Z,8.47
2023-03-18T00:44:11.403Z,8.59
2023-03-18T00:45:14.292Z,8.73
2023-03-18T00:46:18.880Z,8.63
2023-03-18T00:47:21.310Z,8.27
2023-03-18T00:48:24.327Z,8.12
2023-03-18T00:49:26.419Z,8.04
2023-03-18T00:50:29.284Z,8.16
2023-03-18T00:51:34.180Z,7.89
2023-03-18T00:52:37.380Z,7.89
2023-03-18T00:53:38.941Z,7.81
2023-03-18T00:54:41.951Z,7.84
2023-03-18T00:55:43.976Z,7.98
2023-03-18T00:56:47.141Z,8.44
2023-03-18T00:57:48.886Z,8.74
2023-03-18T00:58:52.593Z,8.64
2023-03-18T00:59:54.196Z,8.76
2023-03-18T01:00:57.097Z,8.45
2023-03-18T01:01:58.692Z,8.37
2023-03-18T01:03:01.470Z,8.33
2023-03-18T01:04:04.405Z,8.66
2023-03-18T01:05:07.358Z,8.91
2023-03-18T01:06:10.546Z,9.26
2023-03-18T01:07:15.426Z,9.53
2023-03-18T01:08:17.374Z,9.71
2023-03-18T01:09:19.836Z,9.86
2023-03-18T01:10:21.371Z,9.89
2023-03-18T01:11:24.682Z,10.03
2023-03-18T01:12:26.178Z,10.09
2023-03-18T01:13:28.739Z,10.24
2023-03-18T01:14:30.284Z,10.32
2023-03-18T01:15:32.835Z,10.20
2023-03-18T01:16:34.371Z,10.22
2023-03-18T01:17:37.489Z,10.30
2023-03-18T01:18:39.390Z,10.25
2023-03-18T01:19:42.408Z,10.38
2023-03-18T01:20:44.612Z,10.10
2023-03-18T01:21:47.230Z,10.28
2023-03-18T01:22:50.256Z,10.27
2023-03-18T01:23:53.377Z,10.46
2023-03-18T01:24:55.491Z,10.45
2023-03-18T01:25:59.021Z,10.49
2023-03-18T01:27:00.623Z,10.42
2023-03-18T01:28:03.173Z,10.40
2023-03-18T01:29:05.599Z,10.35
2023-03-18T01:30:09.960Z,10.59
2023-03-18T01:31:12.925Z,10.73
2023-03-18T01:32:16.076Z,10.47
2023-03-18T01:33:17.838Z,10.57
2023-03-18T01:34:21.584Z,10.62
2023-03-18T01:35:24.133Z,10.77
2023-03-18T01:36:26.684Z,10.82
2023-03-18T01:37:29.005Z,10.72
2023-03-18T01:38:33.454Z,10.81
2023-03-18T01:39:35.693Z,10.84
2023-03-18T01:40:40.482Z,10.95
2023-03-18T01:41:42.294Z,11.01
2023-03-18T01:42:49.634Z,10.93
2023-03-18T01:43:51.873Z,11.07
2023-03-18T01:45:16.196Z,11.27
2023-03-18T01:46:36.356Z,11.39
2023-03-18T01:47:38.881Z,11.47
2023-03-18T01:48:40.716Z,11.37
2023-03-18T01:49:48.357Z,11.48
2023-03-18T01:50:59.372Z,11.37
2023-03-18T01:52:07.657Z,11.06
2023-03-18T01:53:12.458Z,10.95
2023-03-18T01:54:18.697Z,10.85
2023-03-18T01:55:30.553Z,10.89
2023-03-18T01:56:36.302Z,10.77
2023-03-18T01:57:38.339Z,10.88
2023-03-18T01:58:43.296Z,10.85
2023-03-18T01:59:47.232Z,10.98
2023-03-18T02:00:54.475Z,11.11
2023-03-18T02:02:01.985Z,11.14
2023-03-18T02:03:06.159Z,11.29
2023-03-18T02:04:10.447Z,11.39
2023-03-18T02:05:18.963Z,11.47
2023-03-18T02:06:20.615Z,11.60
2023-03-18T02:07:28.611Z,11.60
2023-03-18T02:08:30.166Z,11.46
2023-03-18T02:09:34.133Z,11.38
2023-03-18T02:10:37.383Z,11.24
2023-03-18T02:11:43.616Z,11.35
2023-03-18T02:12:49.816Z,11.35
2023-03-18T02:13:52.486Z,11.37
2023-03-18T02:14:54.453Z,11.61
2023-03-18T02:16:04.828Z,11.57
2023-03-18T02:17:11.043Z,11.49
2023-03-18T02:18:19.445Z,11.58
2023-03-18T02:19:33.677Z,11.48
2023-03-18T02:20:50.607Z,11.36
2023-03-18T02:21:58.854Z,11.46
2023-03-18T02:23:09.932Z,11.47
2023-03-18T02:24:22.368Z,11.57
2023-03-18T02:25:37.901Z,11.48
2023-03-18T02:26:44.403Z,11.17
2023-03-18T02:27:52.380Z,11.08
2023-03-18T02:28:59.554Z,11.20
2023-03-18T02:30:05.614Z,11.36
2023-03-18T02:31:13.929Z,11.50
2023-03-18T02:32:17.619Z,11.61
2023-03-18T02:33:23.397Z,11.66
2023-03-18T02:34:25.849Z,11.78
2023-03-18T02:35:30.526Z,11.77
2023-03-18T02:36:34.012Z,11.80
2023-03-18T02:37:36.855Z,11.81
2023-03-18T02:38:41.716Z,11.78
2023-03-18T02:39:44.155Z,11.86
2023-03-18T02:40:45.691Z,11.88
2023-03-18T02:41:48.491Z,11.86
2023-03-18T02:42:52.383Z,11.96
2023-03-18T02:43:55.300Z,11.99
2023-03-18T02:44:57.833Z,11.98
2023-03-18T02:46:14.657Z,12.02
2023-03-18T02:47:21.083Z,11.90
2023-03-18T02:48:27.177Z,11.90
2023-03-18T02:49:29.017Z,11.82
2023-03-18T02:50:31.808Z,12.01
2023-03-18T02:51:35.544Z,11.85
2023-03-18T02:52:38.894Z,11.86
2023-03-18T02:53:41.810Z,11.98
2023-03-18T02:54:44.345Z,11.94
2023-03-18T02:55:46.565Z,11.91
2023-03-18T02:56:49.129Z,11.87
2023-03-18T02:57:51.955Z,11.75
2023-03-18T02:58:54.449Z,11.81
2023-03-18T02:59:56.243Z,12.01
2023-03-18T03:00:59.111Z,11.99
2023-03-18T03:02:01.661Z,12.19
2023-03-18T03:03:05.322Z,12.14
2023-03-18T03:04:07.587Z,12.17
2023-03-18T03:05:10.627Z,12.22
2023-03-18T03:06:12.620Z,12.34
2023-03-18T03:07:15.044Z,12.28
2023-03-18T03:08:16.571Z,12.10
2023-03-18T03:09:19.898Z,11.97
2023-03-18T03:10:21.553Z,11.89
2023-03-18T03:11:24.181Z,11.93
2023-03-18T03:12:25.813Z,11.88
2023-03-18T03:13:29.753Z,11.94
2023-03-18T03:14:31.291Z,11.93
2023-03-18T03:15:34.105Z,12.09
2023-03-18T03:16:36.180Z,12.17
2023-03-18T03:17:39.574Z,12.21
2023-03-18T03:18:42.077Z,11.99
2023-03-18T03:19:44.748Z,11.80
2023-03-18T03:20:46.689Z,11.70
2023-03-18T03:21:49.273Z,11.46
2023-03-18T03:22:51.077Z,11.35
2023-03-18T03:23:54.698Z,11.37
2023-03-18T03:24:56.207Z,11.37
2023-03-18T03:25:59.115Z,11.47
2023-03-18T03:27:01.062Z,11.46
2023-03-18T03:28:03.969Z,11.47
2023-03-18T03:29:07.882Z,11.36
2023-03-18T03:30:12.220Z,11.09
2023-03-18T03:31:15.671Z,11.25
2023-03-18T03:32:17.185Z,11.07
2023-03-18T03:33:19.739Z,11.20
2023-03-18T03:34:21.314Z,11.23
2023-03-18T03:35:25.107Z,11.27
2023-03-18T03:36:26.831Z,11.22
2023-03-18T03:37:29.611Z,11.18
2023-03-18T03:38:31.201Z,11.09
2023-03-18T03:39:33.958Z,11.00
2023-03-18T03:40:35.546Z,10.85
2023-03-18T03:41:38.058Z,10.79
2023-03-18T03:42:40.340Z,10.62
2023-03-18T03:43:43.418Z,10.61
2023-03-18T03:44:46.396Z,10.67
2023-03-18T03:45:49.036Z,10.70
2023-03-18T03:46:51.029Z,10.82
2023-03-18T03:47:53.920Z,10.81
2023-03-18T03:48:55.685Z,10.80
2023-03-18T03:49:58.223Z,10.65
2023-03-18T03:50:59.895Z,10.60
2023-03-18T03:52:02.811Z,10.62
2023-03-18T03:53:04.938Z,10.60
2023-03-18T03:54:07.536Z,10.65
2023-03-18T03:55:12.694Z,10.69
2023-03-18T03:56:15.763Z,10.88
2023-03-18T03:57:17.778Z,10.97
2023-03-18T03:58:20.416Z,10.78
2023-03-18T03:59:21.969Z,10.70
2023-03-18T04:00:26.228Z,10.76
2023-03-18T04:01:28.199Z,10.54
2023-03-18T04:02:30.739Z,10.41
2023-03-18T04:03:32.522Z,10.49
2023-03-18T04:04:35.094Z,10.56
2023-03-18T04:05:37.500Z,10.64
2023-03-18T04:06:40.033Z,10.80
2023-03-18T04:07:42.110Z,10.65
2023-03-18T04:08:44.608Z,10.72
2023-03-18T04:09:46.696Z,10.85
2023-03-18T04:10:49.205Z,10.91
2023-03-18T04:11:50.803Z,10.89
2023-03-18T04:12:53.298Z,10.95
2023-03-18T04:13:54.797Z,11.01
2023-03-18T04:14:57.406Z,11.02
2023-03-18T04:16:01.481Z,10.92
2023-03-18T04:17:03.115Z,10.88
2023-03-18T04:18:07.537Z,10.75
2023-03-18T04:19:10.304Z,10.47
2023-03-18T04:20:14.093Z,10.79
2023-03-18T04:21:16.358Z,10.89
2023-03-18T04:22:19.400Z,11.02
2023-03-18T04:23:20.982Z,11.17
2023-03-18T04:24:24.080Z,11.02
2023-03-18T04:25:26.466Z,10.89
2023-03-18T04:26:29.166Z,10.93
2023-03-18T04:27:30.880Z,10.89
2023-03-18T04:28:34.082Z,10.69
2023-03-18T04:29:35.838Z,10.50
2023-03-18T04:30:38.369Z,10.31
2023-03-18T04:31:41.706Z,10.27
2023-03-18T04:32:44.304Z,10.38
2023-03-18T04:33:45.887Z,10.06
2023-03-18T04:34:48.495Z,10.08
2023-03-18T04:35:52.724Z,10.16
2023-03-18T04:36:55.513Z,10.02
2023-03-18T04:37:57.054Z,10.23
2023-03-18T04:38:59.961Z,10.41
2023-03-18T04:40:01.613Z,10.32
2023-03-18T04:41:04.100Z,10.43
2023-03-18T04:42:05.797Z,10.47
2023-03-18T04:43:09.941Z,10.53
2023-03-18T04:44:11.830Z,10.62
2023-03-18T04:45:15.542Z,10.76
2023-03-18T04:46:17.190Z,10.59
2023-03-18T04:47:21.013Z,10.55
2023-03-18T04:48:22.505Z,10.61
2023-03-18T04:49:25.316Z,10.76
2023-03-18T04:50:27.859Z,10.95
2023-03-18T04:51:30.356Z,11.14
2023-03-18T04:52:31.930Z,10.99
2023-03-18T04:53:34.394Z,11.10
2023-03-18T04:54:37.299Z,11.29
2023-03-18T04:55:40.760Z,11.18
2023-03-18T04:56:43.660Z,11.34
2023-03-18T04:57:46.181Z,11.51
2023-03-18T04:58:47.750Z,11.57
2023-03-18T04:59:50.410Z,11.48
2023-03-18T05:00:52.589Z,11.67
2023-03-18T05:01:55.147Z,11.85
2023-03-18T05:02:58.148Z,11.80
2023-03-18T05:04:00.691Z,11.86
2023-03-18T05:05:02.527Z,11.63
2023-03-18T05:06:06.140Z,11.70
2023-03-18T05:07:08.613Z,11.41
2023-03-18T05:08:11.416Z,11.00
2023-03-18T05:09:13.334Z,11.23
2023-03-18T05:10:16.451Z,11.60
2023-03-18T05:11:18.773Z,11.78
2023-03-18T05:12:21.414Z,11.99
2023-03-18T05:13:24.070Z,12.06
2023-03-18T05:14:27.016Z,12.08
2023-03-18T05:15:28.795Z,12.08
2023-03-18T05:16:31.402Z,11.61
2023-03-18T05:17:33.073Z,11.39
2023-03-18T05:18:37.245Z,11.26
2023-03-18T05:19:38.757Z,11.52
2023-03-18T05:20:41.793Z,11.64
2023-03-18T05:21:43.306Z,11.77
2023-03-18T05:22:45.934Z,11.88
2023-03-18T05:23:47.568Z,11.95
2023-03-18T05:24:50.294Z,12.03
2023-03-18T05:25:52.342Z,11.28
2023-03-18T05:26:55.491Z,11.31
2023-03-18T05:27:57.898Z,11.15
2023-03-18T05:29:00.427Z,11.37
2023-03-18T05:30:02.244Z,11.36
2023-03-18T05:31:05.147Z,11.48
2023-03-18T05:32:07.604Z,11.66
2023-03-18T05:33:10.336Z,11.59
2023-03-18T05:34:13.467Z,11.72
2023-03-18T05:35:16.178Z,11.27
2023-03-18T05:36:17.674Z,11.01
2023-03-18T05:37:20.216Z,11.10
2023-03-18T05:38:22.333Z,11.16
2023-03-18T05:39:25.253Z,11.18
2023-03-18T05:40:26.811Z,10.87
2023-03-18T05:41:29.376Z,10.68
2023-03-18T05:42:30.955Z,10.34
2023-03-18T05:43:33.696Z,10.12
2023-03-18T05:44:35.386Z,10.15
2023-03-18T05:45:40.211Z,10.36
2023-03-18T05:46:43.273Z,10.50
2023-03-18T05:47:44.793Z,10.34
2023-03-18T05:48:47.272Z,10.45
2023-03-18T05:49:50.472Z,10.63
2023-03-18T05:50:52.979Z,10.84
2023-03-18T05:51:55.123Z,11.14
2023-03-18T05:52:58.028Z,10.96
2023-03-18T05:53:59.704Z,10.86
2023-03-18T05:55:02.540Z,11.14
2023-03-18T05:56:04.683Z,11.13
2023-03-18T05:57:07.415Z,11.37
2023-03-18T05:58:09.401Z,11.27
2023-03-18T05:59:12.548Z,11.36
2023-03-18T06:00:15.491Z,11.50
2023-03-18T06:01:17.935Z,11.64
2023-03-18T06:02:20.516Z,11.56
2023-03-18T06:03:22.512Z,11.27
2023-03-18T06:04:27.067Z,10.93
2023-03-18T06:05:31.182Z,10.93
2023-03-18T06:06:35.900Z,11.15
2023-03-18T06:07:37.625Z,11.10
2023-03-18T06:08:41.192Z,11.07
2023-03-18T06:09:43.273Z,11.24
2023-03-18T06:10:45.866Z,11.42
2023-03-18T06:11:47.448Z,11.29
2023-03-18T06:12:50.545Z,11.56
2023-03-18T06:13:52.256Z,11.75
2023-03-18T06:14:54.978Z,11.82
2023-03-18T06:15:57.195Z,11.77
2023-03-18T06:17:00.210Z,11.74
2023-03-18T06:18:01.774Z,11.57
2023-03-18T06:19:05.871Z,11.41
2023-03-18T06:20:09.470Z,11.49
2023-03-18T06:21:13.309Z,11.76
2023-03-18T06:22:17.003Z,11.94
2023-03-18T06:23:19.652Z,12.08
2023-03-18T06:24:21.207Z,12.13
2023-03-18T06:25:24.552Z,12.15
2023-03-18T06:26:26.660Z,12.03
2023-03-18T06:27:29.133Z,12.01
2023-03-18T06:28:30.913Z,12.09
2023-03-18T06:29:33.681Z,12.18
2023-03-18T06:30:35.611Z,12.24
2023-03-18T06:31:38.184Z,12.01
2023-03-18T06:32:40.560Z,11.93
2023-03-18T06:33:43.143Z,11.91
2023-03-18T06:34:45.493Z,11.97
2023-03-18T06:35:49.428Z,11.56
2023-03-18T06:36:52.399Z,11.72
2023-03-18T06:37:55.601Z,11.86
2023-03-18T06:38:57.580Z,11.82
2023-03-18T06:40:00.267Z,12.00
2023-03-18T06:41:03.128Z,11.76
2023-03-18T06:42:04.901Z,11.91
2023-03-18T06:43:07.400Z,11.90
2023-03-18T06:44:09.200Z,12.07
2023-03-18T06:45:12.896Z,12.14
2023-03-18T06:46:14.682Z,12.17
2023-03-18T06:47:18.325Z,12.24
2023-03-18T06:48:20.112Z,12.15
2023-03-18T06:49:22.565Z,12.20
2023-03-18T06:50:25.307Z,12.21
2023-03-18T06:51:26.891Z,12.16
2023-03-18T06:52:31.061Z,12.02
2023-03-18T06:53:33.315Z,12.16
2023-03-18T06:54:35.777Z,12.31
2023-03-18T06:55:37.995Z,12.29
2023-03-18T06:56:42.922Z,12.38
2023-03-18T06:57:46.757Z,12.39
2023-03-18T06:58:49.347Z,12.48
2023-03-18T06:59:51.083Z,12.64
2023-03-18T07:00:54.011Z,12.51
2023-03-18T07:01:55.813Z,12.17
2023-03-18T07:02:58.486Z,11.45
2023-03-18T07:04:00.688Z,11.52
2023-03-18T07:05:04.392Z,11.69
2023-03-18T07:06:07.841Z,12.02
2023-03-18T07:07:10.801Z,12.29
2023-03-18T07:08:15.546Z,11.60
2023-03-18T07:09:18.741Z,11.60
2023-03-18T07:10:22.882Z,12.04
2023-03-18T07:11:26.883Z,12.17
2023-03-18T07:12:28.578Z,12.28
2023-03-18T07:13:31.048Z,12.57
2023-03-18T07:14:32.589Z,12.76
2023-03-18T07:15:35.460Z,12.95
2023-03-18T07:16:37.200Z,13.13
2023-03-18T07:17:39.716Z,13.24
2023-03-18T07:18:42.669Z,13.22
2023-03-18T07:19:45.437Z,12.43
2023-03-18T07:20:46.996Z,12.40
2023-03-18T07:21:49.666Z,12.74
2023-03-18T07:22:51.498Z,12.86
2023-03-18T07:23:56.079Z,12.95
2023-03-18T07:24:57.653Z,13.02
2023-03-18T07:26:00.163Z,13.12
2023-03-18T07:27:01.725Z,13.24
2023-03-18T07:28:04.989Z,13.41
2023-03-18T07:29:06.853Z,13.31
2023-03-18T07:30:10.422Z,13.45
2023-03-18T07:31:12.025Z,13.58
2023-03-18T07:32:14.763Z,13.50
2023-03-18T07:33:16.291Z,13.07
2023-03-18T07:34:19.273Z,13.07
2023-03-18T07:35:21.955Z,13.19
2023-03-18T07:36:25.134Z,13.31
2023-03-18T07:37:27.506Z,13.49
2023-03-18T07:38:30.732Z,13.60
2023-03-18T07:39:33.886Z,13.74
2023-03-18T07:40:37.018Z,13.88
2023-03-18T07:41:38.505Z,13.98
2023-03-18T07:42:41.252Z,14.05
2023-03-18T07:43:43.614Z,14.11
2023-03-18T07:44:46.173Z,14.15
2023-03-18T07:45:47.775Z,14.15
2023-03-18T07:46:50.615Z,14.08
2023-03-18T07:47:53.389Z,14.16
2023-03-18T07:48:57.128Z,14.28
2023-03-18T07:49:59.383Z,14.15
2023-03-18T07:51:02.822Z,14.28
2023-03-18T07:52:04.783Z,14.40
2023-03-18T07:53:07.821Z,14.47
2023-03-18T07:54:09.348Z,14.63
2023-03-18T07:55:13.319Z,14.70
2023-03-18T07:56:14.823Z,14.80
2023-03-18T07:57:17.370Z,14.84
2023-03-18T07:58:18.949Z,14.87
2023-03-18T07:59:21.792Z,14.90
2023-03-18T08:00:23.514Z,14.98
2023-03-18T08:01:26.528Z,15.07
2023-03-18T08:02:28.718Z,15.09
2023-03-18T08:03:31.259Z,15.22
2023-03-18T08:04:32.936Z,15.29
2023-03-18T08:05:35.566Z,15.23
2023-03-18T08:06:37.887Z,15.07
2023-03-18T08:07:40.594Z,15.06
2023-03-18T08:08:42.983Z,14.85
2023-03-18T08:09:45.904Z,14.85
2023-03-18T08:10:48.798Z,14.77
2023-03-18T08:11:51.668Z,14.85
2023-03-18T08:12:54.226Z,15.09
2023-03-18T08:13:57.089Z,14.89
2023-03-18T08:14:59.922Z,14.61
2023-03-18T08:16:02.593Z,14.47
2023-03-18T08:17:04.140Z,14.39
2023-03-18T08:18:09.344Z,14.53
2023-03-18T08:19:11.227Z,13.75
2023-03-18T08:20:15.275Z,13.66
2023-03-18T08:21:17.763Z,13.79
2023-03-18T08:22:19.379Z,13.79
2023-03-18T08:23:22.442Z,14.09
2023-03-18T08:24:24.531Z,14.55
2023-03-18T08:25:27.362Z,14.87
2023-03-18T08:26:30.315Z,14.85
2023-03-18T08:27:33.107Z,14.89
2023-03-18T08:28:35.177Z,15.17
2023-03-18T08:29:37.988Z,15.36
2023-03-18T08:30:39.760Z,15.48
2023-03-18T08:31:42.956Z,15.47
2023-03-18T08:32:44.671Z,15.26
2023-03-18T08:33:47.545Z,14.90
2023-03-18T08:34:49.161Z,15.02
2023-03-18T08:35:52.111Z,14.93
2023-03-18T08:36:53.796Z,14.90
2023-03-18T08:37:57.144Z,15.22
2023-03-18T08:38:58.742Z,15.49
2023-03-18T08:40:02.069Z,15.68
2023-03-18T08:41:04.050Z,15.53
2023-03-18T08:42:08.257Z,15.85
2023-03-18T08:43:09.979Z,15.90
2023-03-18T08:44:12.615Z,15.59
2023-03-18T08:45:14.508Z,15.58
2023-03-18T08:46:17.888Z,15.53
2023-03-18T08:47:20.064Z,15.88
2023-03-18T08:48:24.160Z,15.79
2023-03-18T08:49:25.722Z,15.80
2023-03-18T08:50:29.835Z,15.98
2023-03-18T08:51:32.634Z,15.87
2023-03-18T08:52:35.545Z,16.03
2023-03-18T08:53:37.722Z,15.65
2023-03-18T08:54:40.502Z,15.37
2023-03-18T08:55:42.215Z,15.52
2023-03-18T08:56:45.030Z,15.77
2023-03-18T08:57:48.089Z,15.54
2023-03-18T08:58:51.168Z,15.62
2023-03-18T08:59:53.325Z,15.67
2023-03-18T09:00:56.710Z,15.67
2023-03-18T09:01:59.873Z,15.47
2023-03-18T09:03:01.869Z,15.21
2023-03-18T09:04:04.543Z,15.02
2023-03-18T09:05:06.848Z,14.96
2023-03-18T09:06:09.729Z,15.06
2023-03-18T09:07:14.753Z,15.34
2023-03-18T09:08:17.256Z,14.97
2023-03-18T09:09:18.873Z,15.09
2023-03-18T09:10:21.560Z,15.27
2023-03-18T09:11:23.830Z,15.35
2023-03-18T09:12:26.536Z,15.48
2023-03-18T09:13:29.404Z,15.56
2023-03-18T09:14:34.516Z,15.63
2023-03-18T09:15:36.344Z,15.77
2023-03-18T09:16:38.991Z,16.06
2023-03-18T09:17:56.628Z,15.77
2023-03-18T09:19:03.438Z,16.11
2023-03-18T09:20:05.720Z,16.23
2023-03-18T09:21:08.461Z,16.20
2023-03-18T09:22:10.402Z,16.34
2023-03-18T09:23:15.614Z,16.50
2023-03-18T09:24:17.741Z,16.71
2023-03-18T09:25:20.699Z,16.62
2023-03-18T09:26:22.448Z,16.57
2023-03-18T09:27:25.295Z,16.49
2023-03-18T09:28:29.164Z,16.66
2023-03-18T09:29:33.049Z,16.89
2023-03-18T09:30:35.267Z,17.10
2023-03-18T09:31:38.667Z,16.24
2023-03-18T09:32:41.040Z,16.38
2023-03-18T09:33:43.829Z,16.45
2023-03-18T09:34:46.385Z,16.55
2023-03-18T09:35:50.692Z,16.79
2023-03-18T09:36:52.540Z,16.47
2023-03-18T09:37:55.573Z,16.68
2023-03-18T09:38:58.055Z,16.68
2023-03-18T09:40:00.522Z,16.46
2023-03-18T09:41:08.931Z,16.28
2023-03-18T09:42:28.604Z,16.41
2023-03-18T09:43:46.149Z,16.78
2023-03-18T09:44:55.577Z,16.98
2023-03-18T09:46:06.901Z,17.09
2023-03-18T09:47:28.734Z,17.14
2023-03-18T09:48:56.774Z,17.28
2023-03-18T09:50:13.276Z,17.33
2023-03-18T09:51:28.422Z,17.37
2023-03-18T09:52:33.889Z,17.46
2023-03-18T09:53:44.082Z,17.49
2023-03-18T09:54:54.348Z,17.18
2023-03-18T09:56:00.918Z,17.05
2023-03-18T09:57:04.744Z,17.09
2023-03-18T09:58:16.394Z,16.88
2023-03-18T09:59:21.558Z,16.35
2023-03-18T10:00:30.019Z,16.32
2023-03-18T10:01:35.666Z,16.59
2023-03-18T10:02:43.281Z,16.67
2023-03-18T10:03:50.303Z,17.01
2023-03-18T10:04:57.484Z,16.97
2023-03-18T10:06:04.414Z,16.81
2023-03-18T10:07:14.326Z,16.89
2023-03-18T10:08:23.007Z,17.22
2023-03-18T10:09:29.946Z,17.62
2023-03-18T10:10:37.311Z,17.78
2023-03-18T10:11:43.806Z,17.92
2023-03-18T10:12:50.790Z,17.22
2023-03-18T10:14:14.107Z,17.32
2023-03-18T10:15:18.807Z,17.48
2023-03-18T10:16:27.463Z,17.65
2023-03-18T10:17:32.618Z,17.52
2023-03-18T10:18:38.017Z,17.68
2023-03-18T10:19:46.490Z,18.08
2023-03-18T10:21:00.242Z,18.30
2023-03-18T10:22:22.159Z,18.49
2023-03-18T10:23:36.592Z,18.88
2023-03-18T10:24:47.956Z,18.80
2023-03-18T10:25:54.884Z,18.62
2023-03-18T10:27:08.757Z,18.72
2023-03-18T10:28:41.609Z,19.03
2023-03-18T10:29:49.389Z,19.11
2023-03-18T10:31:02.766Z,18.58
2023-03-18T10:32:17.154Z,18.55
2023-03-18T10:33:27.913Z,18.62
2023-03-18T10:34:34.764Z,18.44
2023-03-18T10:35:42.293Z,18.82
2023-03-18T10:36:51.587Z,19.15
2023-03-18T10:37:57.778Z,19.92
2023-03-18T10:39:04.943Z,21.30
2023-03-18T10:40:14.943Z,23.00
2023-03-18T10:41:24.947Z,23.91
2023-03-18T10:42:32.842Z,22.94
2023-03-18T10:43:35.736Z,22.20
2023-03-18T10:44:41.668Z,21.70
2023-03-18T10:45:44.351Z,23.20
2023-03-18T10:46:48.703Z,24.63
2023-03-18T10:48:00.708Z,25.20
2023-03-18T10:49:08.454Z,25.84
2023-03-18T10:50:17.486Z,23.23
2023-03-18T10:51:24.600Z,23.43
2023-03-18T10:52:33.802Z,23.50
2023-03-18T10:53:43.860Z,24.81
2023-03-18T10:54:50.314Z,25.60
2023-03-18T10:56:00.436Z,24.51
2023-03-18T10:57:03.016Z,23.86
2023-03-18T10:58:14.966Z,23.44
2023-03-18T10:59:19.729Z,24.05
2023-03-18T11:00:28.977Z,24.82
2023-03-18T11:01:31.908Z,25.59
2023-03-18T11:02:36.398Z,25.28
2023-03-18T11:03:45.623Z,24.86
2023-03-18T11:04:50.608Z,24.95
2023-03-18T11:05:54.575Z,25.25
2023-03-18T11:06:59.645Z,24.73
2023-03-18T11:08:04.841Z,23.40
2023-03-18T11:09:09.446Z,22.30
2023-03-18T11:10:15.267Z,21.45
2023-03-18T11:11:22.840Z,21.60
2023-03-18T11:12:28.500Z,22.21
2023-03-18T11:13:30.202Z,21.75
2023-03-18T11:14:33.907Z,21.43
2023-03-18T11:15:38.410Z,21.56
2023-03-18T11:16:42.787Z,21.32
2023-03-18T11:17:49.769Z,20.31
2023-03-18T11:18:54.717Z,20.52
2023-03-18T11:20:05.797Z,19.82
2023-03-18T11:21:13.217Z,19.81
2023-03-18T11:22:22.342Z,19.77
2023-03-18T11:23:46.155Z,19.98
2023-03-18T11:25:02.529Z,20.23
2023-03-18T11:26:09.765Z,20.22
2023-03-18T11:27:36.591Z,20.59
2023-03-18T11:28:41.853Z,20.23
2023-03-18T11:29:47.005Z,19.74
2023-03-18T11:30:52.991Z,19.89
2023-03-18T11:31:58.348Z,19.73
2023-03-18T11:33:07.071Z,20.13
2023-03-18T11:34:10.139Z,21.26
2023-03-18T11:35:21.044Z,21.80
2023-03-18T11:36:24.174Z,21.65
2023-03-18T11:37:34.868Z,21.09
2023-03-18T11:38:37.478Z,20.85
2023-03-18T11:39:41.474Z,21.04
2023-03-18T11:40:43.838Z,20.81
2023-03-18T11:41:46.418Z,20.57
2023-03-18T11:42:48.866Z,20.96
2023-03-18T11:44:01.663Z,21.21
2023-03-18T11:45:19.722Z,21.69
2023-03-18T11:46:24.909Z,22.96
2023-03-18T11:47:30.230Z,25.07
2023-03-18T11:48:37.002Z,27.12
2023-03-18T11:49:39.927Z,28.27
2023-03-18T11:50:54.512Z,28.54
2023-03-18T11:52:19.800Z,26.38
2023-03-18T11:53:29.675Z,27.38
2023-03-18T11:54:47.401Z,27.00
2023-03-18T11:55:53.572Z,27.69
2023-03-18T11:56:57.430Z,29.05
2023-03-18T11:58:31.368Z,29.55
2023-03-18T11:59:52.461Z,30.12
2023-03-18T12:01:00.503Z,31.01
2023-03-18T12:02:25.091Z,30.25
2023-03-18T12:03:53.601Z,30.04
2023-03-18T12:05:21.232Z,30.85
2023-03-18T12:06:24.939Z,32.01
2023-03-18T12:07:43.421Z,32.59
2023-03-18T12:09:03.273Z,33.76
2023-03-18T12:10:19.735Z,34.36
2023-03-18T12:11:34.911Z,33.91
2023-03-18T12:12:53.522Z,33.51
2023-03-18T12:14:03.976Z,31.09
2023-03-18T12:15:16.637Z,32.48
2023-03-18T12:16:36.403Z,33.74
2023-03-18T12:17:50.224Z,35.15
2023-03-18T12:19:17.569Z,34.69
2023-03-18T12:20:40.382Z,34.57
2023-03-18T12:21:56.374Z,32.07
2023-03-18T12:23:10.679Z,31.26
2023-03-18T12:24:38.222Z,32.21
2023-03-18T12:25:52.197Z,30.06
2023-03-18T12:27:04.719Z,30.63
2023-03-18T12:28:13.801Z,32.03
2023-03-18T12:29:37.441Z,33.67
2023-03-18T12:30:56.171Z,30.09
2023-03-18T12:32:08.018Z,30.00
2023-03-18T12:33:22.798Z,30.87
2023-03-18T12:34:43.481Z,31.44
2023-03-18T12:35:51.401Z,32.82
2023-03-18T12:37:05.086Z,32.49
2023-03-18T12:38:38.380Z,31.54
2023-03-18T12:40:16.686Z,30.65
2023-03-18T12:41:25.148Z,32.34
2023-03-18T12:42:39.556Z,33.16
2023-03-18T12:43:51.635Z,32.50
2023-03-18T12:45:00.906Z,32.81
2023-03-18T12:46:09.358Z,34.07
2023-03-18T12:47:18.056Z,33.97
2023-03-18T12:48:42.663Z,33.58
2023-03-18T12:49:50.314Z,32.20
2023-03-18T12:50:58.428Z,28.98
2023-03-18T12:52:06.344Z,28.77
2023-03-18T12:53:16.478Z,26.89
2023-03-18T12:54:25.676Z,29.40
2023-03-18T12:55:29.333Z,30.65
2023-03-18T12:56:33.265Z,31.40
2023-03-18T12:57:44.359Z,31.52
2023-03-18T12:58:51.345Z,31.60
2023-03-18T12:59:59.093Z,31.65
2023-03-18T13:01:07.261Z,31.26
2023-03-18T13:02:27.022Z,31.89
2023-03-18T13:03:33.927Z,31.01
2023-03-18T13:04:38.611Z,30.17
2023-03-18T13:05:49.929Z,28.32
2023-03-18T13:07:02.099Z,26.40
2023-03-18T13:08:46.987Z,26.68
2023-03-18T13:09:54.099Z,27.68
2023-03-18T13:11:06.278Z,28.01
2023-03-18T13:12:13.459Z,28.45
2023-03-18T13:13:16.293Z,30.06
2023-03-18T13:14:27.268Z,30.64
2023-03-18T13:15:35.257Z,30.07
2023-03-18T13:16:38.491Z,29.84
2023-03-18T13:17:44.585Z,28.62
2023-03-18T13:18:50.424Z,28.04
2023-03-18T13:19:53.289Z,28.16
2023-03-18T13:20:59.026Z,29.26
2023-03-18T13:22:17.657Z,30.06
2023-03-18T13:23:41.372Z,30.68
2023-03-18T13:25:00.272Z,31.44
2023-03-18T13:26:15.640Z,30.60
2023-03-18T13:27:41.764Z,30.03
2023-03-18T13:28:56.794Z,30.42
2023-03-18T13:30:08.224Z,29.69
2023-03-18T13:31:21.277Z,29.14
2023-03-18T13:32:40.455Z,28.22
2023-03-18T13:33:55.864Z,27.36
2023-03-18T13:35:15.857Z,26.91
2023-03-18T13:36:50.819Z,25.18
2023-03-18T13:38:25.887Z,23.96
2023-03-18T13:39:43.657Z,23.80
2023-03-18T13:41:06.281Z,26.21
2023-03-18T13:42:26.224Z,26.96
2023-03-18T13:43:29.857Z,27.63
2023-03-18T13:44:40.952Z,29.55
2023-03-18T13:45:49.077Z,30.02
2023-03-18T13:46:57.566Z,29.65
2023-03-18T13:48:02.778Z,28.82
2023-03-18T13:49:04.540Z,29.35
2023-03-18T13:50:27.207Z,29.26
2023-03-18T13:51:53.126Z,29.82
2023-03-18T13:52:57.875Z,30.67
2023-03-18T13:54:06.702Z,30.89
2023-03-18T13:55:25.515Z,32.08
2023-03-18T13:56:33.128Z,33.50
2023-03-18T13:57:47.669Z,34.11
2023-03-18T13:58:52.541Z,33.49
2023-03-18T14:00:28.401Z,31.38
2023-03-18T14:01:35.733Z,30.45
2023-03-18T14:02:45.685Z,29.61
2023-03-18T14:03:57.155Z,30.12
2023-03-18T14:04:59.858Z,28.97
2023-03-18T14:06:24.124Z,29.99